Hovedside
METAR-TAF:

METAR-TAF

Lufthavner :

Halli lufthavn

Jämsä, Finland

breddegrad: 61-51N, lengdegrad: 024-48E, høyde over havet: 143 m

Gjeldene værobservasjon

Denne rapporten ble laget for 20 minutter siden, klokken 10:20 UTC
Vind 8 kt fra Sørvest, skiftende mellom Sør og Vest-sørvest
Temperatur 17°C
Luftfuktighet 55%
Trykk 1004 hPa
Sikt 10 km eller mer
Få skyer i en høyde av 4000 ft

METAR: EFHA 191020Z 22008KT 190V250 9999 FEW040 17/08 Q1004

Tid: 13:40 (10:40 UTC)

Varsel

Denne rapporten ble laget for 2 timer og 8 minutter siden, klokken 08:32 UTC
Varsel gyldig fra 19. klokken 09 UTC til 19. klokken 15 UTC
Vind 9 kt fra Sør-sørvest
Sikt 10 km eller mer
Brutte skyer i en høyde av 3000 ft
Midlertidig
fra 19. klokken 10 UTC til 19. klokken 15 UTC
Spredte skyer i en høyde av 4000 ft, Bygeskyer.

TAF: EFHA 190832Z 1909/1915 21009KT 9999 BKN030 TEMPO 1910/1915 SCT040CB

Værobservasjoner og værvarsel for over 4000 flyplasser (METAR- og TAF-rapporter).

Tilgjengelige stasjoner er representert av de røde og gule prikkene på kartet.

Hold musepekeren over prikken for å se navnet på stasjonen.

Klikk så for å se værobservasjoner og -varsler.

For å forandre kartet kan du klikke på den grønne knappen med svart kryss for å zoome inn, på den grønne knappen med strek for å zoome ut, eller på de grønne pilene for å se tilstøtende kart.


METAR-TAF: